sensor_id;sensor_type;location;lat;lon;timestamp;P1;durP1;ratioP1;P2;durP2;ratioP2
45534;SDS011;35892;48.798;9.698;2022-12-07T00:01:26;7.13;;;6.13;;
45534;SDS011;35892;48.798;9.698;2022-12-07T00:03:58;6.22;;;5.63;;
45534;SDS011;35892;48.798;9.698;2022-12-07T00:06:35;6.88;;;5.88;;
45534;SDS011;35892;48.798;9.698;2022-12-07T00:09:04;7.05;;;6.35;;
45534;SDS011;35892;48.798;9.698;2022-12-07T00:11:32;7.25;;;6.00;;
45534;SDS011;35892;48.798;9.698;2022-12-07T00:14:01;8.50;;;6.28;;
45534;SDS011;35892;48.798;9.698;2022-12-07T00:16:32;7.50;;;6.68;;
45534;SDS011;35892;48.798;9.698;2022-12-07T00:19:00;10.18;;;7.50;;
45534;SDS011;35892;48.798;9.698;2022-12-07T00:21:28;9.70;;;7.20;;
45534;SDS011;35892;48.798;9.698;2022-12-07T00:23:57;7.30;;;6.47;;
45534;SDS011;35892;48.798;9.698;2022-12-07T00:26:27;7.50;;;6.63;;
45534;SDS011;35892;48.798;9.698;2022-12-07T00:28:58;7.10;;;6.13;;
45534;SDS011;35892;48.798;9.698;2022-12-07T00:31:27;7.57;;;6.25;;
45534;SDS011;35892;48.798;9.698;2022-12-07T00:33:59;7.10;;;5.75;;
45534;SDS011;35892;48.798;9.698;2022-12-07T00:36:26;5.95;;;5.35;;
45534;SDS011;35892;48.798;9.698;2022-12-07T00:38:57;7.45;;;6.40;;
45534;SDS011;35892;48.798;9.698;2022-12-07T00:41:25;6.38;;;5.57;;
45534;SDS011;35892;48.798;9.698;2022-12-07T00:43:54;7.78;;;4.85;;
45534;SDS011;35892;48.798;9.698;2022-12-07T00:46:21;6.32;;;5.72;;
45534;SDS011;35892;48.798;9.698;2022-12-07T00:48:48;8.05;;;6.60;;
45534;SDS011;35892;48.798;9.698;2022-12-07T00:51:20;8.43;;;6.47;;
45534;SDS011;35892;48.798;9.698;2022-12-07T00:53:50;9.82;;;6.63;;
45534;SDS011;35892;48.798;9.698;2022-12-07T00:56:20;7.90;;;6.38;;
45534;SDS011;35892;48.798;9.698;2022-12-07T00:58:56;8.07;;;6.28;;
45534;SDS011;35892;48.798;9.698;2022-12-07T01:01:30;8.02;;;5.57;;
45534;SDS011;35892;48.798;9.698;2022-12-07T01:04:01;7.03;;;6.25;;
45534;SDS011;35892;48.798;9.698;2022-12-07T01:06:30;8.23;;;6.57;;
45534;SDS011;35892;48.798;9.698;2022-12-07T01:08:57;7.55;;;6.03;;
45534;SDS011;35892;48.798;9.698;2022-12-07T01:11:26;8.60;;;6.85;;
45534;SDS011;35892;48.798;9.698;2022-12-07T01:13:55;7.78;;;6.53;;
45534;SDS011;35892;48.798;9.698;2022-12-07T01:16:27;8.93;;;6.88;;
45534;SDS011;35892;48.798;9.698;2022-12-07T01:18:56;7.78;;;5.90;;
45534;SDS011;35892;48.798;9.698;2022-12-07T01:21:25;8.25;;;6.60;;
45534;SDS011;35892;48.798;9.698;2022-12-07T01:23:54;7.35;;;5.78;;
45534;SDS011;35892;48.798;9.698;2022-12-07T01:26:23;8.52;;;6.43;;
45534;SDS011;35892;48.798;9.698;2022-12-07T01:28:51;9.05;;;6.03;;
45534;SDS011;35892;48.798;9.698;2022-12-07T01:31:22;8.20;;;6.43;;
45534;SDS011;35892;48.798;9.698;2022-12-07T01:36:31;8.05;;;6.28;;
45534;SDS011;35892;48.798;9.698;2022-12-07T01:39:02;10.82;;;6.80;;
45534;SDS011;35892;48.798;9.698;2022-12-07T01:41:31;10.75;;;7.85;;
45534;SDS011;35892;48.798;9.698;2022-12-07T01:46:53;9.93;;;7.88;;
45534;SDS011;35892;48.798;9.698;2022-12-07T01:52:26;13.00;;;9.80;;
45534;SDS011;35892;48.798;9.698;2022-12-07T01:54:54;9.75;;;8.07;;
45534;SDS011;35892;48.798;9.698;2022-12-07T01:57:25;8.40;;;7.13;;
45534;SDS011;35892;48.798;9.698;2022-12-07T01:59:57;10.90;;;8.63;;
45534;SDS011;35892;48.798;9.698;2022-12-07T02:02:26;10.02;;;7.85;;
45534;SDS011;35892;48.798;9.698;2022-12-07T02:04:58;8.95;;;7.78;;
45534;SDS011;35892;48.798;9.698;2022-12-07T02:07:26;11.63;;;9.90;;
45534;SDS011;35892;48.798;9.698;2022-12-07T02:09:57;10.40;;;8.65;;
45534;SDS011;35892;48.798;9.698;2022-12-07T02:12:42;12.35;;;9.60;;
45534;SDS011;35892;48.798;9.698;2022-12-07T02:15:15;12.57;;;9.70;;
45534;SDS011;35892;48.798;9.698;2022-12-07T02:17:51;12.43;;;9.80;;
45534;SDS011;35892;48.798;9.698;2022-12-07T02:20:39;13.15;;;9.32;;
45534;SDS011;35892;48.798;9.698;2022-12-07T02:31:38;13.35;;;9.68;;
45534;SDS011;35892;48.798;9.698;2022-12-07T02:34:19;13.68;;;10.30;;
45534;SDS011;35892;48.798;9.698;2022-12-07T02:36:55;11.95;;;9.98;;
45534;SDS011;35892;48.798;9.698;2022-12-07T02:42:19;13.18;;;9.95;;
45534;SDS011;35892;48.798;9.698;2022-12-07T02:44:56;10.95;;;9.00;;
45534;SDS011;35892;48.798;9.698;2022-12-07T02:47:25;11.48;;;9.68;;
45534;SDS011;35892;48.798;9.698;2022-12-07T02:49:55;12.30;;;10.02;;
45534;SDS011;35892;48.798;9.698;2022-12-07T02:52:22;10.65;;;8.68;;
45534;SDS011;35892;48.798;9.698;2022-12-07T02:54:49;12.38;;;9.43;;
45534;SDS011;35892;48.798;9.698;2022-12-07T02:57:22;11.52;;;9.50;;
45534;SDS011;35892;48.798;9.698;2022-12-07T03:00:07;11.82;;;9.95;;
45534;SDS011;35892;48.798;9.698;2022-12-07T03:11:06;12.93;;;9.77;;
45534;SDS011;35892;48.798;9.698;2022-12-07T03:16:31;15.13;;;10.93;;
45534;SDS011;35892;48.798;9.698;2022-12-07T03:19:15;14.70;;;10.23;;
45534;SDS011;35892;48.798;9.698;2022-12-07T03:21:45;13.27;;;10.05;;
45534;SDS011;35892;48.798;9.698;2022-12-07T03:24:17;14.75;;;11.32;;
45534;SDS011;35892;48.798;9.698;2022-12-07T03:26:58;13.95;;;10.68;;
45534;SDS011;35892;48.798;9.698;2022-12-07T03:29:37;12.90;;;9.63;;
45534;SDS011;35892;48.798;9.698;2022-12-07T03:32:14;13.82;;;11.45;;
45534;SDS011;35892;48.798;9.698;2022-12-07T03:37:33;12.98;;;9.10;;
45534;SDS011;35892;48.798;9.698;2022-12-07T03:42:42;11.13;;;8.35;;
45534;SDS011;35892;48.798;9.698;2022-12-07T03:45:09;12.40;;;10.02;;
45534;SDS011;35892;48.798;9.698;2022-12-07T03:47:46;16.25;;;10.60;;
45534;SDS011;35892;48.798;9.698;2022-12-07T03:50:35;11.02;;;8.25;;
45534;SDS011;35892;48.798;9.698;2022-12-07T03:53:18;11.20;;;9.32;;
45534;SDS011;35892;48.798;9.698;2022-12-07T03:55:54;14.75;;;10.30;;
45534;SDS011;35892;48.798;9.698;2022-12-07T03:58:23;11.15;;;8.45;;
45534;SDS011;35892;48.798;9.698;2022-12-07T04:00:51;14.75;;;10.52;;
45534;SDS011;35892;48.798;9.698;2022-12-07T04:03:21;13.18;;;9.95;;
45534;SDS011;35892;48.798;9.698;2022-12-07T04:05:47;14.90;;;11.13;;
45534;SDS011;35892;48.798;9.698;2022-12-07T04:08:14;11.95;;;9.18;;
45534;SDS011;35892;48.798;9.698;2022-12-07T04:10:44;13.95;;;10.50;;
45534;SDS011;35892;48.798;9.698;2022-12-07T04:13:11;16.15;;;10.80;;
45534;SDS011;35892;48.798;9.698;2022-12-07T04:15:37;13.05;;;9.15;;
45534;SDS011;35892;48.798;9.698;2022-12-07T04:18:04;15.27;;;10.60;;
45534;SDS011;35892;48.798;9.698;2022-12-07T04:20:33;16.10;;;10.35;;
45534;SDS011;35892;48.798;9.698;2022-12-07T04:23:00;11.07;;;8.95;;
45534;SDS011;35892;48.798;9.698;2022-12-07T04:25:29;16.58;;;11.30;;
45534;SDS011;35892;48.798;9.698;2022-12-07T04:27:58;14.90;;;10.50;;
45534;SDS011;35892;48.798;9.698;2022-12-07T04:30:24;12.90;;;9.63;;
45534;SDS011;35892;48.798;9.698;2022-12-07T04:32:54;13.45;;;9.73;;
45534;SDS011;35892;48.798;9.698;2022-12-07T04:35:20;12.45;;;9.27;;
45534;SDS011;35892;48.798;9.698;2022-12-07T04:37:50;14.13;;;8.80;;
45534;SDS011;35892;48.798;9.698;2022-12-07T04:40:19;14.10;;;11.02;;
45534;SDS011;35892;48.798;9.698;2022-12-07T04:42:48;11.50;;;9.00;;
45534;SDS011;35892;48.798;9.698;2022-12-07T04:45:16;14.45;;;10.85;;
45534;SDS011;35892;48.798;9.698;2022-12-07T04:47:43;14.50;;;10.25;;
45534;SDS011;35892;48.798;9.698;2022-12-07T04:50:10;14.13;;;9.73;;
45534;SDS011;35892;48.798;9.698;2022-12-07T04:52:37;15.10;;;10.73;;
45534;SDS011;35892;48.798;9.698;2022-12-07T04:55:03;13.50;;;10.20;;
45534;SDS011;35892;48.798;9.698;2022-12-07T04:57:30;14.45;;;10.52;;
45534;SDS011;35892;48.798;9.698;2022-12-07T05:00:00;13.38;;;10.02;;
45534;SDS011;35892;48.798;9.698;2022-12-07T05:02:27;16.17;;;11.70;;
45534;SDS011;35892;48.798;9.698;2022-12-07T05:04:54;15.13;;;11.07;;
45534;SDS011;35892;48.798;9.698;2022-12-07T05:07:23;11.70;;;9.23;;
45534;SDS011;35892;48.798;9.698;2022-12-07T05:09:52;13.38;;;9.77;;
45534;SDS011;35892;48.798;9.698;2022-12-07T05:12:18;14.25;;;11.00;;
45534;SDS011;35892;48.798;9.698;2022-12-07T05:14:45;14.55;;;10.45;;
45534;SDS011;35892;48.798;9.698;2022-12-07T05:17:12;14.13;;;11.23;;
45534;SDS011;35892;48.798;9.698;2022-12-07T05:19:38;12.73;;;9.98;;
45534;SDS011;35892;48.798;9.698;2022-12-07T05:22:05;13.50;;;11.20;;
45534;SDS011;35892;48.798;9.698;2022-12-07T05:24:32;15.52;;;11.48;;
45534;SDS011;35892;48.798;9.698;2022-12-07T05:26:58;16.90;;;11.77;;
45534;SDS011;35892;48.798;9.698;2022-12-07T05:29:25;14.10;;;10.85;;
45534;SDS011;35892;48.798;9.698;2022-12-07T05:31:52;13.82;;;10.48;;
45534;SDS011;35892;48.798;9.698;2022-12-07T05:34:19;13.35;;;10.30;;
45534;SDS011;35892;48.798;9.698;2022-12-07T05:36:46;12.75;;;9.35;;
45534;SDS011;35892;48.798;9.698;2022-12-07T05:39:13;13.32;;;9.10;;
45534;SDS011;35892;48.798;9.698;2022-12-07T05:41:40;14.32;;;10.45;;
45534;SDS011;35892;48.798;9.698;2022-12-07T05:44:27;17.70;;;10.50;;
45534;SDS011;35892;48.798;9.698;2022-12-07T05:46:54;13.02;;;9.80;;
45534;SDS011;35892;48.798;9.698;2022-12-07T05:49:21;14.00;;;10.25;;
45534;SDS011;35892;48.798;9.698;2022-12-07T05:51:47;12.93;;;9.15;;
45534;SDS011;35892;48.798;9.698;2022-12-07T05:54:14;13.02;;;9.45;;
45534;SDS011;35892;48.798;9.698;2022-12-07T05:56:41;14.40;;;10.82;;
45534;SDS011;35892;48.798;9.698;2022-12-07T05:59:08;13.25;;;10.18;;
45534;SDS011;35892;48.798;9.698;2022-12-07T06:04:23;17.40;;;11.57;;
45534;SDS011;35892;48.798;9.698;2022-12-07T06:06:53;12.85;;;9.70;;
45534;SDS011;35892;48.798;9.698;2022-12-07T06:09:20;11.52;;;8.98;;
45534;SDS011;35892;48.798;9.698;2022-12-07T06:11:50;13.55;;;9.63;;
45534;SDS011;35892;48.798;9.698;2022-12-07T06:14:36;14.98;;;10.50;;
45534;SDS011;35892;48.798;9.698;2022-12-07T06:17:03;14.40;;;10.07;;
45534;SDS011;35892;48.798;9.698;2022-12-07T06:19:31;13.95;;;10.98;;
45534;SDS011;35892;48.798;9.698;2022-12-07T06:21:58;17.15;;;11.57;;
45534;SDS011;35892;48.798;9.698;2022-12-07T06:24:28;14.73;;;11.00;;
45534;SDS011;35892;48.798;9.698;2022-12-07T06:26:58;16.80;;;11.43;;
45534;SDS011;35892;48.798;9.698;2022-12-07T06:29:24;22.60;;;13.75;;
45534;SDS011;35892;48.798;9.698;2022-12-07T06:31:51;22.13;;;15.63;;
45534;SDS011;35892;48.798;9.698;2022-12-07T06:34:19;17.38;;;13.05;;
45534;SDS011;35892;48.798;9.698;2022-12-07T06:36:49;19.42;;;13.43;;
45534;SDS011;35892;48.798;9.698;2022-12-07T06:39:22;15.27;;;10.75;;
45534;SDS011;35892;48.798;9.698;2022-12-07T06:41:53;16.10;;;11.75;;
45534;SDS011;35892;48.798;9.698;2022-12-07T06:44:22;16.65;;;12.25;;
45534;SDS011;35892;48.798;9.698;2022-12-07T06:46:50;19.42;;;11.63;;
45534;SDS011;35892;48.798;9.698;2022-12-07T06:49:21;16.30;;;11.53;;
45534;SDS011;35892;48.798;9.698;2022-12-07T06:51:47;16.17;;;11.65;;
45534;SDS011;35892;48.798;9.698;2022-12-07T06:54:14;19.17;;;12.65;;
45534;SDS011;35892;48.798;9.698;2022-12-07T06:56:42;17.67;;;13.00;;
45534;SDS011;35892;48.798;9.698;2022-12-07T06:59:11;15.23;;;10.90;;
45534;SDS011;35892;48.798;9.698;2022-12-07T07:01:38;15.23;;;10.77;;
45534;SDS011;35892;48.798;9.698;2022-12-07T07:04:05;17.63;;;12.38;;
45534;SDS011;35892;48.798;9.698;2022-12-07T07:06:32;13.75;;;10.10;;
45534;SDS011;35892;48.798;9.698;2022-12-07T07:09:01;15.20;;;11.02;;
45534;SDS011;35892;48.798;9.698;2022-12-07T07:11:33;11.02;;;8.30;;
45534;SDS011;35892;48.798;9.698;2022-12-07T07:13:59;18.65;;;13.02;;
45534;SDS011;35892;48.798;9.698;2022-12-07T07:16:30;15.52;;;11.02;;
45534;SDS011;35892;48.798;9.698;2022-12-07T07:18:57;16.08;;;11.27;;
45534;SDS011;35892;48.798;9.698;2022-12-07T07:21:31;16.20;;;10.73;;
45534;SDS011;35892;48.798;9.698;2022-12-07T07:23:58;14.95;;;10.90;;
45534;SDS011;35892;48.798;9.698;2022-12-07T07:26:27;12.88;;;9.52;;
45534;SDS011;35892;48.798;9.698;2022-12-07T07:28:56;14.70;;;10.60;;
45534;SDS011;35892;48.798;9.698;2022-12-07T07:31:23;15.30;;;10.68;;
45534;SDS011;35892;48.798;9.698;2022-12-07T07:33:50;16.77;;;11.73;;
45534;SDS011;35892;48.798;9.698;2022-12-07T07:36:16;13.52;;;9.05;;
45534;SDS011;35892;48.798;9.698;2022-12-07T07:38:43;14.02;;;9.88;;
45534;SDS011;35892;48.798;9.698;2022-12-07T07:41:12;13.57;;;9.65;;
45534;SDS011;35892;48.798;9.698;2022-12-07T07:43:44;17.42;;;11.77;;
45534;SDS011;35892;48.798;9.698;2022-12-07T07:46:10;15.75;;;11.05;;
45534;SDS011;35892;48.798;9.698;2022-12-07T07:48:37;17.55;;;11.82;;
45534;SDS011;35892;48.798;9.698;2022-12-07T07:51:07;16.55;;;12.48;;
45534;SDS011;35892;48.798;9.698;2022-12-07T07:53:57;13.80;;;10.38;;
45534;SDS011;35892;48.798;9.698;2022-12-07T07:56:26;11.68;;;8.55;;
45534;SDS011;35892;48.798;9.698;2022-12-07T07:58:55;13.70;;;9.52;;
45534;SDS011;35892;48.798;9.698;2022-12-07T08:01:24;12.32;;;9.20;;
45534;SDS011;35892;48.798;9.698;2022-12-07T08:03:51;14.45;;;10.15;;
45534;SDS011;35892;48.798;9.698;2022-12-07T08:06:18;13.48;;;9.70;;
45534;SDS011;35892;48.798;9.698;2022-12-07T08:08:47;15.43;;;10.77;;
45534;SDS011;35892;48.798;9.698;2022-12-07T08:11:13;12.95;;;9.80;;
45534;SDS011;35892;48.798;9.698;2022-12-07T08:13:46;11.88;;;8.90;;
45534;SDS011;35892;48.798;9.698;2022-12-07T08:16:15;15.57;;;11.40;;
45534;SDS011;35892;48.798;9.698;2022-12-07T08:18:42;13.20;;;9.75;;
45534;SDS011;35892;48.798;9.698;2022-12-07T08:21:10;13.20;;;9.40;;
45534;SDS011;35892;48.798;9.698;2022-12-07T08:23:39;11.10;;;8.90;;
45534;SDS011;35892;48.798;9.698;2022-12-07T08:26:14;14.85;;;9.93;;
45534;SDS011;35892;48.798;9.698;2022-12-07T08:28:42;15.35;;;10.27;;
45534;SDS011;35892;48.798;9.698;2022-12-07T08:31:14;13.07;;;10.10;;
45534;SDS011;35892;48.798;9.698;2022-12-07T08:33:46;13.98;;;10.60;;
45534;SDS011;35892;48.798;9.698;2022-12-07T08:36:15;15.23;;;10.65;;
45534;SDS011;35892;48.798;9.698;2022-12-07T08:38:42;14.00;;;9.52;;
45534;SDS011;35892;48.798;9.698;2022-12-07T08:41:31;13.43;;;9.73;;
45534;SDS011;35892;48.798;9.698;2022-12-07T08:44:01;13.10;;;9.77;;
45534;SDS011;35892;48.798;9.698;2022-12-07T08:46:37;15.20;;;10.88;;
45534;SDS011;35892;48.798;9.698;2022-12-07T08:49:13;12.32;;;9.45;;
45534;SDS011;35892;48.798;9.698;2022-12-07T08:51:49;11.88;;;8.55;;
45534;SDS011;35892;48.798;9.698;2022-12-07T08:54:17;12.70;;;9.15;;
45534;SDS011;35892;48.798;9.698;2022-12-07T08:56:45;9.38;;;7.50;;
45534;SDS011;35892;48.798;9.698;2022-12-07T08:59:19;12.15;;;8.32;;
45534;SDS011;35892;48.798;9.698;2022-12-07T09:01:46;10.35;;;8.60;;
45534;SDS011;35892;48.798;9.698;2022-12-07T09:04:18;10.10;;;7.70;;
45534;SDS011;35892;48.798;9.698;2022-12-07T09:06:47;10.85;;;8.15;;
45534;SDS011;35892;48.798;9.698;2022-12-07T09:09:14;10.82;;;8.10;;
45534;SDS011;35892;48.798;9.698;2022-12-07T09:11:41;10.50;;;7.93;;
45534;SDS011;35892;48.798;9.698;2022-12-07T09:14:13;7.60;;;5.93;;
45534;SDS011;35892;48.798;9.698;2022-12-07T09:16:45;10.50;;;7.85;;
45534;SDS011;35892;48.798;9.698;2022-12-07T09:19:17;10.03;;;7.47;;
45534;SDS011;35892;48.798;9.698;2022-12-07T09:21:46;8.35;;;6.82;;
45534;SDS011;35892;48.798;9.698;2022-12-07T09:24:13;12.90;;;9.20;;
45534;SDS011;35892;48.798;9.698;2022-12-07T09:26:39;10.52;;;8.02;;
45534;SDS011;35892;48.798;9.698;2022-12-07T09:29:06;10.95;;;7.65;;
45534;SDS011;35892;48.798;9.698;2022-12-07T09:31:36;9.52;;;7.50;;
45534;SDS011;35892;48.798;9.698;2022-12-07T09:34:05;10.73;;;7.85;;
45534;SDS011;35892;48.798;9.698;2022-12-07T09:36:34;8.88;;;7.53;;
45534;SDS011;35892;48.798;9.698;2022-12-07T09:39:08;10.07;;;7.45;;
45534;SDS011;35892;48.798;9.698;2022-12-07T09:41:39;9.20;;;8.05;;
45534;SDS011;35892;48.798;9.698;2022-12-07T09:44:12;9.93;;;7.13;;
45534;SDS011;35892;48.798;9.698;2022-12-07T09:46:42;10.20;;;7.13;;
45534;SDS011;35892;48.798;9.698;2022-12-07T09:49:17;18.17;;;11.63;;
45534;SDS011;35892;48.798;9.698;2022-12-07T09:52:00;12.05;;;9.18;;
45534;SDS011;35892;48.798;9.698;2022-12-07T09:54:29;10.65;;;7.82;;
45534;SDS011;35892;48.798;9.698;2022-12-07T09:56:58;8.57;;;6.72;;
45534;SDS011;35892;48.798;9.698;2022-12-07T09:59:27;8.00;;;6.63;;
45534;SDS011;35892;48.798;9.698;2022-12-07T10:02:17;7.38;;;5.88;;
45534;SDS011;35892;48.798;9.698;2022-12-07T10:05:05;8.30;;;5.22;;
45534;SDS011;35892;48.798;9.698;2022-12-07T10:07:34;8.65;;;6.45;;
45534;SDS011;35892;48.798;9.698;2022-12-07T10:10:09;8.05;;;6.30;;
45534;SDS011;35892;48.798;9.698;2022-12-07T10:12:57;7.88;;;5.97;;
45534;SDS011;35892;48.798;9.698;2022-12-07T10:15:41;6.97;;;5.50;;
45534;SDS011;35892;48.798;9.698;2022-12-07T10:21:12;6.78;;;5.35;;
45534;SDS011;35892;48.798;9.698;2022-12-07T10:23:58;9.45;;;5.55;;
45534;SDS011;35892;48.798;9.698;2022-12-07T10:27:10;8.25;;;5.20;;
45534;SDS011;35892;48.798;9.698;2022-12-07T10:29:19;6.85;;;5.20;;
45534;SDS011;35892;48.798;9.698;2022-12-07T10:32:00;7.40;;;5.60;;
45534;SDS011;35892;48.798;9.698;2022-12-07T10:34:34;9.93;;;5.68;;
45534;SDS011;35892;48.798;9.698;2022-12-07T10:39:56;7.60;;;5.53;;
45534;SDS011;35892;48.798;9.698;2022-12-07T10:50:38;7.97;;;5.28;;
45534;SDS011;35892;48.798;9.698;2022-12-07T10:53:39;8.25;;;6.22;;
45534;SDS011;35892;48.798;9.698;2022-12-07T10:56:26;7.57;;;5.28;;
45534;SDS011;35892;48.798;9.698;2022-12-07T11:06:57;6.93;;;5.28;;
45534;SDS011;35892;48.798;9.698;2022-12-07T11:12:26;7.10;;;5.38;;
45534;SDS011;35892;48.798;9.698;2022-12-07T11:17:56;6.00;;;4.95;;
45534;SDS011;35892;48.798;9.698;2022-12-07T11:20:54;5.97;;;4.97;;
45534;SDS011;35892;48.798;9.698;2022-12-07T11:35:14;5.95;;;4.75;;
45534;SDS011;35892;48.798;9.698;2022-12-07T11:38:01;7.55;;;5.22;;
45534;SDS011;35892;48.798;9.698;2022-12-07T11:40:58;8.30;;;5.75;;
45534;SDS011;35892;48.798;9.698;2022-12-07T11:43:43;10.82;;;8.18;;
45534;SDS011;35892;48.798;9.698;2022-12-07T11:46:24;7.13;;;5.65;;
45534;SDS011;35892;48.798;9.698;2022-12-07T11:49:04;7.07;;;5.00;;
45534;SDS011;35892;48.798;9.698;2022-12-07T11:51:46;8.20;;;5.18;;
45534;SDS011;35892;48.798;9.698;2022-12-07T11:54:20;8.80;;;5.50;;
45534;SDS011;35892;48.798;9.698;2022-12-07T11:56:51;7.32;;;4.35;;
45534;SDS011;35892;48.798;9.698;2022-12-07T12:02:15;7.57;;;4.93;;
45534;SDS011;35892;48.798;9.698;2022-12-07T12:04:58;7.07;;;4.60;;
45534;SDS011;35892;48.798;9.698;2022-12-07T12:07:49;7.70;;;4.65;;
45534;SDS011;35892;48.798;9.698;2022-12-07T12:10:54;7.25;;;4.63;;
45534;SDS011;35892;48.798;9.698;2022-12-07T12:22:28;8.32;;;5.82;;
45534;SDS011;35892;48.798;9.698;2022-12-07T12:25:10;8.85;;;6.13;;
45534;SDS011;35892;48.798;9.698;2022-12-07T12:28:10;7.32;;;5.35;;
45534;SDS011;35892;48.798;9.698;2022-12-07T12:31:13;12.27;;;5.85;;
45534;SDS011;35892;48.798;9.698;2022-12-07T12:33:58;6.60;;;4.85;;
45534;SDS011;35892;48.798;9.698;2022-12-07T12:51:50;8.50;;;5.07;;
45534;SDS011;35892;48.798;9.698;2022-12-07T12:56:51;8.27;;;5.43;;
45534;SDS011;35892;48.798;9.698;2022-12-07T12:59:29;8.02;;;4.88;;
45534;SDS011;35892;48.798;9.698;2022-12-07T13:04:34;7.63;;;5.32;;
45534;SDS011;35892;48.798;9.698;2022-12-07T13:20:59;6.60;;;4.60;;
45534;SDS011;35892;48.798;9.698;2022-12-07T13:26:04;8.15;;;4.82;;
45534;SDS011;35892;48.798;9.698;2022-12-07T13:34:03;7.78;;;4.38;;
45534;SDS011;35892;48.798;9.698;2022-12-07T13:36:38;6.88;;;4.38;;
45534;SDS011;35892;48.798;9.698;2022-12-07T13:41:50;6.60;;;4.13;;
45534;SDS011;35892;48.798;9.698;2022-12-07T13:44:28;7.60;;;4.63;;
45534;SDS011;35892;48.798;9.698;2022-12-07T13:49:55;7.32;;;4.82;;
45534;SDS011;35892;48.798;9.698;2022-12-07T13:57:33;6.72;;;4.72;;
45534;SDS011;35892;48.798;9.698;2022-12-07T14:00:05;6.60;;;5.10;;
45534;SDS011;35892;48.798;9.698;2022-12-07T14:06:05;5.38;;;4.63;;
45534;SDS011;35892;48.798;9.698;2022-12-07T14:08:40;5.88;;;4.45;;
45534;SDS011;35892;48.798;9.698;2022-12-07T14:11:13;8.60;;;5.28;;
45534;SDS011;35892;48.798;9.698;2022-12-07T14:13:50;9.93;;;5.82;;
45534;SDS011;35892;48.798;9.698;2022-12-07T14:18:56;9.13;;;6.13;;
45534;SDS011;35892;48.798;9.698;2022-12-07T14:21:25;8.57;;;5.60;;
45534;SDS011;35892;48.798;9.698;2022-12-07T14:24:18;8.77;;;5.93;;
45534;SDS011;35892;48.798;9.698;2022-12-07T14:26:47;7.63;;;5.63;;
45534;SDS011;35892;48.798;9.698;2022-12-07T14:29:18;10.07;;;6.57;;
45534;SDS011;35892;48.798;9.698;2022-12-07T14:31:48;7.60;;;6.55;;
45534;SDS011;35892;48.798;9.698;2022-12-07T14:34:15;8.05;;;6.70;;
45534;SDS011;35892;48.798;9.698;2022-12-07T14:36:42;11.38;;;8.10;;
45534;SDS011;35892;48.798;9.698;2022-12-07T14:39:09;10.63;;;7.10;;
45534;SDS011;35892;48.798;9.698;2022-12-07T14:41:39;9.70;;;7.90;;
45534;SDS011;35892;48.798;9.698;2022-12-07T14:44:22;10.27;;;7.40;;
45534;SDS011;35892;48.798;9.698;2022-12-07T14:46:56;17.48;;;12.07;;
45534;SDS011;35892;48.798;9.698;2022-12-07T14:49:43;11.57;;;8.23;;
45534;SDS011;35892;48.798;9.698;2022-12-07T14:52:14;13.57;;;6.72;;
45534;SDS011;35892;48.798;9.698;2022-12-07T14:55:03;8.85;;;6.85;;
45534;SDS011;35892;48.798;9.698;2022-12-07T14:57:38;9.18;;;6.65;;
45534;SDS011;35892;48.798;9.698;2022-12-07T15:00:05;11.73;;;6.82;;
45534;SDS011;35892;48.798;9.698;2022-12-07T15:02:32;12.27;;;7.60;;
45534;SDS011;35892;48.798;9.698;2022-12-07T15:05:04;9.48;;;7.05;;
45534;SDS011;35892;48.798;9.698;2022-12-07T15:07:37;10.63;;;8.07;;
45534;SDS011;35892;48.798;9.698;2022-12-07T15:10:04;10.60;;;8.05;;
45534;SDS011;35892;48.798;9.698;2022-12-07T15:12:33;9.15;;;6.72;;
45534;SDS011;35892;48.798;9.698;2022-12-07T15:15:02;13.13;;;8.90;;
45534;SDS011;35892;48.798;9.698;2022-12-07T15:17:30;11.63;;;7.72;;
45534;SDS011;35892;48.798;9.698;2022-12-07T15:19:57;9.73;;;7.13;;
45534;SDS011;35892;48.798;9.698;2022-12-07T15:22:26;11.13;;;7.43;;
45534;SDS011;35892;48.798;9.698;2022-12-07T15:24:55;10.23;;;6.88;;
45534;SDS011;35892;48.798;9.698;2022-12-07T15:27:22;9.40;;;7.15;;
45534;SDS011;35892;48.798;9.698;2022-12-07T15:29:49;11.02;;;8.38;;
45534;SDS011;35892;48.798;9.698;2022-12-07T15:32:16;14.68;;;9.40;;
45534;SDS011;35892;48.798;9.698;2022-12-07T15:34:45;12.35;;;9.05;;
45534;SDS011;35892;48.798;9.698;2022-12-07T15:37:11;18.00;;;11.60;;
45534;SDS011;35892;48.798;9.698;2022-12-07T15:39:41;11.85;;;9.30;;
45534;SDS011;35892;48.798;9.698;2022-12-07T15:42:08;11.70;;;9.35;;
45534;SDS011;35892;48.798;9.698;2022-12-07T15:44:34;13.63;;;10.13;;
45534;SDS011;35892;48.798;9.698;2022-12-07T15:47:20;16.73;;;11.50;;
45534;SDS011;35892;48.798;9.698;2022-12-07T15:49:47;11.57;;;8.55;;
45534;SDS011;35892;48.798;9.698;2022-12-07T15:52:18;13.38;;;8.10;;
45534;SDS011;35892;48.798;9.698;2022-12-07T15:54:45;9.93;;;7.35;;
45534;SDS011;35892;48.798;9.698;2022-12-07T15:57:13;10.50;;;7.70;;
45534;SDS011;35892;48.798;9.698;2022-12-07T15:59:40;9.57;;;7.07;;
45534;SDS011;35892;48.798;9.698;2022-12-07T16:02:07;8.65;;;6.57;;
45534;SDS011;35892;48.798;9.698;2022-12-07T16:04:36;9.32;;;6.53;;
45534;SDS011;35892;48.798;9.698;2022-12-07T16:07:03;13.35;;;7.15;;
45534;SDS011;35892;48.798;9.698;2022-12-07T16:09:32;11.55;;;7.78;;
45534;SDS011;35892;48.798;9.698;2022-12-07T16:12:01;10.82;;;8.25;;
45534;SDS011;35892;48.798;9.698;2022-12-07T16:14:27;9.93;;;6.85;;
45534;SDS011;35892;48.798;9.698;2022-12-07T16:16:54;11.13;;;7.20;;
45534;SDS011;35892;48.798;9.698;2022-12-07T16:19:21;13.70;;;8.73;;
45534;SDS011;35892;48.798;9.698;2022-12-07T16:21:48;12.73;;;8.52;;
45534;SDS011;35892;48.798;9.698;2022-12-07T16:24:15;13.60;;;10.93;;
45534;SDS011;35892;48.798;9.698;2022-12-07T16:26:42;15.77;;;11.85;;
45534;SDS011;35892;48.798;9.698;2022-12-07T16:29:16;13.68;;;9.27;;
45534;SDS011;35892;48.798;9.698;2022-12-07T16:31:44;16.73;;;11.90;;
45534;SDS011;35892;48.798;9.698;2022-12-07T16:34:13;15.93;;;10.35;;
45534;SDS011;35892;48.798;9.698;2022-12-07T16:36:40;13.85;;;9.93;;
45534;SDS011;35892;48.798;9.698;2022-12-07T16:39:27;12.65;;;9.15;;
45534;SDS011;35892;48.798;9.698;2022-12-07T16:41:54;15.63;;;10.65;;
45534;SDS011;35892;48.798;9.698;2022-12-07T16:44:20;15.20;;;11.10;;
45534;SDS011;35892;48.798;9.698;2022-12-07T16:46:49;11.00;;;9.00;;
45534;SDS011;35892;48.798;9.698;2022-12-07T16:49:16;14.88;;;9.50;;
45534;SDS011;35892;48.798;9.698;2022-12-07T16:51:46;13.27;;;9.55;;
45534;SDS011;35892;48.798;9.698;2022-12-07T16:54:36;15.50;;;10.98;;
45534;SDS011;35892;48.798;9.698;2022-12-07T16:57:05;16.33;;;10.73;;
45534;SDS011;35892;48.798;9.698;2022-12-07T16:59:34;16.30;;;10.53;;
45534;SDS011;35892;48.798;9.698;2022-12-07T17:02:03;14.82;;;10.93;;
45534;SDS011;35892;48.798;9.698;2022-12-07T17:04:33;12.65;;;9.85;;
45534;SDS011;35892;48.798;9.698;2022-12-07T17:07:03;22.10;;;13.77;;
45534;SDS011;35892;48.798;9.698;2022-12-07T17:09:30;13.75;;;10.18;;
45534;SDS011;35892;48.798;9.698;2022-12-07T17:11:56;13.70;;;9.43;;
45534;SDS011;35892;48.798;9.698;2022-12-07T17:14:23;15.05;;;10.68;;
45534;SDS011;35892;48.798;9.698;2022-12-07T17:17:09;12.45;;;9.43;;
45534;SDS011;35892;48.798;9.698;2022-12-07T17:19:36;11.25;;;8.63;;
45534;SDS011;35892;48.798;9.698;2022-12-07T17:22:02;10.55;;;8.75;;
45534;SDS011;35892;48.798;9.698;2022-12-07T17:24:37;12.43;;;8.25;;
45534;SDS011;35892;48.798;9.698;2022-12-07T17:27:07;13.20;;;9.73;;
45534;SDS011;35892;48.798;9.698;2022-12-07T17:29:34;12.63;;;10.23;;
45534;SDS011;35892;48.798;9.698;2022-12-07T17:32:01;12.02;;;9.88;;